Time;durP1;ratioP1;P1;durP2;ratioP2;P2;SDS_P1;SDS_P2;PMS_P1;PMS_P2;Temp;Humidity;BMP_temperature;BMP_pressure;BME280_temperature;BME280_humidity;BME280_pressure;Samples;Min_cycle;Max_cycle;Signal;HPM_P1;HPM_P2
2022/06/13 00:00:20;;;;;;;3.08;2.67;;;;;;;;;;7417938;19;20541;-82
2022/06/13 00:02:46;;;;;;;3.25;2.80;;;;;;;;;;7397775;19;20465;-82
2022/06/13 00:05:13;;;;;;;3.60;2.70;;;;;;;;;;7386405;19;20505;-82
2022/06/13 00:07:39;;;;;;;3.70;2.67;;;;;;;;;;7384293;19;20184;-82
2022/06/13 00:10:06;;;;;;;4.07;2.80;;;;;;;;;;7391802;19;20132;-82
2022/06/13 00:12:32;;;;;;;4.40;2.67;;;;;;;;;;7385617;19;20136;-79
2022/06/13 00:14:58;;;;;;;3.75;2.88;;;;;;;;;;7395127;19;20157;-79
2022/06/13 00:17:24;;;;;;;6.45;2.88;;;;;;;;;;7389357;19;20618;-80
2022/06/13 00:19:50;;;;;;;2.97;2.67;;;;;;;;;;7387668;19;20149;-79
2022/06/13 00:22:16;;;;;;;2.72;2.42;;;;;;;;;;7386895;19;20682;-81
2022/06/13 00:24:42;;;;;;;3.17;2.53;;;;;;;;;;7387877;19;20576;-78
2022/06/13 00:27:09;;;;;;;5.43;2.70;;;;;;;;;;7384151;19;20172;-79
2022/06/13 00:29:37;;;;;;;3.42;2.95;;;;;;;;;;7383305;19;20161;-80
2022/06/13 00:32:03;;;;;;;6.07;3.08;;;;;;;;;;7381046;19;20137;-80
2022/06/13 00:34:29;;;;;;;3.17;2.88;;;;;;;;;;7385370;19;20650;-79
2022/06/13 00:36:55;;;;;;;3.30;2.67;;;;;;;;;;7379834;19;20165;-79
2022/06/13 00:39:21;;;;;;;3.25;2.70;;;;;;;;;;7385139;19;20149;-79
2022/06/13 00:41:47;;;;;;;3.83;2.70;;;;;;;;;;7386053;19;20141;-81
2022/06/13 00:44:23;;;;;;;3.80;2.60;;;;;;;;;;7375976;19;20200;-78
2022/06/13 00:46:50;;;;;;;4.45;2.53;;;;;;;;;;7378280;19;20216;-79
2022/06/13 00:49:18;;;;;;;5.77;3.27;;;;;;;;;;7383826;19;20141;-80
2022/06/13 00:51:46;;;;;;;3.30;2.75;;;;;;;;;;7390985;19;20125;-83
2022/06/13 00:54:12;;;;;;;3.50;2.30;;;;;;;;;;7405611;19;20137;-82
2022/06/13 00:56:39;;;;;;;4.93;2.57;;;;;;;;;;7395343;19;20175;-79
2022/06/13 00:59:06;;;;;;;4.07;2.78;;;;;;;;;;7382886;19;20124;-81
2022/06/13 01:01:33;;;;;;;4.93;2.97;;;;;;;;;;7383893;19;20137;-80
2022/06/13 01:03:59;;;;;;;3.67;3.08;;;;;;;;;;7380496;19;20157;-82
2022/06/13 01:06:26;;;;;;;3.00;2.70;;;;;;;;;;7381454;19;20145;-79
2022/06/13 01:08:53;;;;;;;3.42;2.78;;;;;;;;;;7383879;19;20133;-81
2022/06/13 01:11:21;;;;;;;4.47;2.75;;;;;;;;;;7394180;19;20368;-80
2022/06/13 01:14:06;;;;;;;3.13;2.50;;;;;;;;;;7388066;19;20148;-81
2022/06/13 01:16:38;;;;;;;2.78;2.58;;;;;;;;;;7383021;19;20539;-80
2022/06/13 01:19:22;;;;;;;3.88;2.90;;;;;;;;;;7386397;19;20140;-79
2022/06/13 01:21:48;;;;;;;3.15;2.40;;;;;;;;;;7380578;19;20152;-78
2022/06/13 01:24:17;;;;;;;5.07;2.78;;;;;;;;;;7375319;19;20511;-79
2022/06/13 01:26:58;;;;;;;6.70;2.90;;;;;;;;;;7377169;19;20169;-79
2022/06/13 13:34:39;;;;;;;4.93;1.90;;;;;;;;;;7403198;19;20128;-88
2022/06/13 13:37:34;;;;;;;1.95;1.60;;;;;;;;;;7400560;19;20545;-89
2022/06/13 13:40:18;;;;;;;4.53;1.85;;;;;;;;;;7396558;19;20190;-90
2022/06/13 13:42:47;;;;;;;3.55;1.90;;;;;;;;;;7397884;19;20144;-91
2022/06/13 13:45:22;;;;;;;2.35;1.80;;;;;;;;;;7397053;19;20129;-91
2022/06/13 13:47:51;;;;;;;3.35;1.50;;;;;;;;;;7397473;19;20136;-90
2022/06/13 13:50:19;;;;;;;5.47;1.90;;;;;;;;;;7402417;19;20172;-91
2022/06/13 13:52:54;;;;;;;1.73;1.60;;;;;;;;;;7409297;19;20153;-90
2022/06/13 13:55:23;;;;;;;3.30;2.00;;;;;;;;;;7404589;19;20150;-90
2022/06/13 13:57:58;;;;;;;2.97;2.08;;;;;;;;;;7405663;19;20147;-91
2022/06/13 14:00:28;;;;;;;4.57;2.15;;;;;;;;;;7403148;19;20180;-91
2022/06/13 14:03:15;;;;;;;5.88;2.08;;;;;;;;;;7396190;19;20149;-91
2022/06/13 14:05:46;;;;;;;21.85;2.75;;;;;;;;;;7390239;19;20141;-90
2022/06/13 14:08:16;;;;;;;3.53;1.80;;;;;;;;;;7395168;19;20133;-90
2022/06/13 14:10:47;;;;;;;2.85;1.90;;;;;;;;;;7392400;19;20184;-90
2022/06/13 14:13:16;;;;;;;2.67;1.95;;;;;;;;;;7395419;19;20152;-91
2022/06/13 14:15:51;;;;;;;3.03;1.90;;;;;;;;;;7396702;19;20120;-90
2022/06/13 14:18:20;;;;;;;3.35;2.00;;;;;;;;;;7394821;19;20629;-90
2022/06/13 14:20:46;;;;;;;3.88;2.20;;;;;;;;;;7394798;19;20164;-91
2022/06/13 14:23:17;;;;;;;2.38;1.83;;;;;;;;;;7397379;19;20149;-89
2022/06/13 14:25:45;;;;;;;3.45;1.83;;;;;;;;;;7396364;19;20161;-89
2022/06/13 14:28:11;;;;;;;3.67;2.00;;;;;;;;;;7398242;19;20133;-91
2022/06/13 14:31:08;;;;;;;2.97;1.50;;;;;;;;;;7396557;19;20166;-88
2022/06/13 14:36:50;;;;;;;3.92;2.13;;;;;;;;;;7399537;19;20592;-89
2022/06/13 14:39:23;;;;;;;3.15;1.60;;;;;;;;;;7402565;19;20152;-90
2022/06/13 14:41:50;;;;;;;3.25;1.98;;;;;;;;;;7407580;19;20141;-89
2022/06/13 14:44:34;;;;;;;4.60;1.90;;;;;;;;;;7400126;19;20176;-89
2022/06/13 14:47:03;;;;;;;2.80;1.88;;;;;;;;;;7408157;19;20173;-89
2022/06/13 14:49:31;;;;;;;2.80;1.95;;;;;;;;;;7401858;19;20172;-88
2022/06/13 14:52:08;;;;;;;2.53;1.70;;;;;;;;;;7404195;19;20206;-89
2022/06/13 14:54:46;;;;;;;4.25;2.00;;;;;;;;;;7402278;19;20144;-90
2022/06/13 14:57:27;;;;;;;2.80;1.85;;;;;;;;;;7403932;19;20973;-89
2022/06/13 15:00:12;;;;;;;2.13;1.92;;;;;;;;;;7401214;19;20531;-90
2022/06/13 15:02:56;;;;;;;3.33;1.90;;;;;;;;;;7408869;19;20184;-90
2022/06/13 15:05:31;;;;;;;5.13;1.92;;;;;;;;;;7406410;19;20153;-88
2022/06/13 15:08:12;;;;;;;2.53;2.00;;;;;;;;;;7408778;19;20132;-89
2022/06/13 15:10:44;;;;;;;3.58;2.03;;;;;;;;;;7408851;19;20148;-89
2022/06/13 15:13:10;;;;;;;3.00;2.15;;;;;;;;;;7400580;19;20509;-89
2022/06/13 15:15:36;;;;;;;3.42;2.13;;;;;;;;;;7406973;19;20132;-90
2022/06/13 15:18:04;;;;;;;4.03;2.00;;;;;;;;;;7401412;19;20160;-89
2022/06/13 15:20:31;;;;;;;2.30;2.00;;;;;;;;;;7403737;19;20211;-90
2022/06/13 15:23:02;;;;;;;3.42;2.00;;;;;;;;;;7408913;19;20499;-90
2022/06/13 15:25:42;;;;;;;4.13;1.95;;;;;;;;;;7416312;19;20141;-89
2022/06/13 15:28:10;;;;;;;2.80;1.95;;;;;;;;;;7429084;19;20145;-88
2022/06/13 15:30:37;;;;;;;3.40;2.03;;;;;;;;;;7427414;19;20169;-87
2022/06/13 15:33:14;;;;;;;3.67;1.90;;;;;;;;;;7418643;19;20470;-88
2022/06/13 15:35:54;;;;;;;2.55;2.00;;;;;;;;;;7404766;19;20149;-87
2022/06/13 15:38:22;;;;;;;2.38;1.85;;;;;;;;;;7406405;19;20167;-87
2022/06/13 15:40:50;;;;;;;2.85;1.83;;;;;;;;;;7402070;19;20180;-87
2022/06/13 15:43:17;;;;;;;2.42;1.58;;;;;;;;;;7402636;19;20167;-89
2022/06/13 15:45:44;;;;;;;3.65;1.90;;;;;;;;;;7404449;19;20153;-86
2022/06/13 15:48:13;;;;;;;3.25;1.83;;;;;;;;;;7408678;19;20155;-87
2022/06/13 15:50:39;;;;;;;2.85;2.03;;;;;;;;;;7402439;19;20179;-89
2022/06/13 15:53:05;;;;;;;2.83;2.03;;;;;;;;;;7406422;19;20128;-87
2022/06/13 15:55:48;;;;;;;3.63;2.10;;;;;;;;;;7403334;19;20156;-86
2022/06/13 15:58:21;;;;;;;2.40;1.92;;;;;;;;;;7405427;19;20159;-88
2022/06/13 16:00:47;;;;;;;3.10;1.90;;;;;;;;;;7401794;19;20200;-85
2022/06/13 16:03:15;;;;;;;3.28;1.83;;;;;;;;;;7405236;19;20163;-87
2022/06/13 16:05:42;;;;;;;2.20;1.65;;;;;;;;;;7402590;19;20171;-85
2022/06/13 16:08:13;;;;;;;5.15;1.88;;;;;;;;;;7401537;19;20140;-86
2022/06/13 16:10:59;;;;;;;3.85;2.30;;;;;;;;;;7399968;19;20181;-88
2022/06/13 16:13:28;;;;;;;4.32;2.08;;;;;;;;;;7402557;19;20145;-89
2022/06/13 16:15:56;;;;;;;2.58;1.70;;;;;;;;;;7399615;19;20141;-88
2022/06/13 16:18:28;;;;;;;1.90;1.80;;;;;;;;;;7403014;19;20156;-89
2022/06/13 16:20:56;;;;;;;1.50;1.40;;;;;;;;;;7400752;19;20158;-90
2022/06/13 16:23:22;;;;;;;2.85;1.80;;;;;;;;;;7401709;19;20510;-89
2022/06/13 16:25:48;;;;;;;2.03;1.60;;;;;;;;;;7403091;19;20602;-90
2022/06/13 16:28:19;;;;;;;2.40;1.77;;;;;;;;;;7405164;19;20133;-88
2022/06/13 16:30:46;;;;;;;1.85;1.65;;;;;;;;;;7401278;19;20164;-91
2022/06/13 16:33:18;;;;;;;2.80;2.05;;;;;;;;;;7401890;19;20159;-90
2022/06/13 16:35:55;;;;;;;1.83;1.58;;;;;;;;;;7400892;19;20148;-88
2022/06/13 16:38:22;;;;;;;1.67;1.45;;;;;;;;;;7403540;19;20137;-89
2022/06/13 16:40:49;;;;;;;1.88;1.63;;;;;;;;;;7400341;19;20165;-90
2022/06/13 16:43:29;;;;;;;1.95;1.50;;;;;;;;;;7403364;19;20137;-89
2022/06/13 16:46:08;;;;;;;2.10;1.45;;;;;;;;;;7403003;19;20159;-86
2022/06/13 16:48:41;;;;;;;3.40;1.77;;;;;;;;;;7403023;19;20167;-86
2022/06/13 16:51:09;;;;;;;4.22;1.70;;;;;;;;;;7405324;19;20145;-87
2022/06/13 16:53:35;;;;;;;1.92;1.40;;;;;;;;;;7406175;19;20125;-86
2022/06/13 16:56:02;;;;;;;2.33;1.40;;;;;;;;;;7422354;19;20156;-86
2022/06/13 16:58:31;;;;;;;1.58;1.38;;;;;;;;;;7420989;19;20129;-87
2022/06/13 17:01:00;;;;;;;2.88;1.70;;;;;;;;;;7415341;19;20156;-89
2022/06/13 17:03:45;;;;;;;2.00;1.80;;;;;;;;;;7421456;19;20133;-87
2022/06/13 17:06:26;;;;;;;1.80;1.33;;;;;;;;;;7424712;19;20152;-89
2022/06/13 17:09:05;;;;;;;3.40;1.83;;;;;;;;;;7426312;19;20128;-87
2022/06/13 17:11:50;;;;;;;3.03;2.10;;;;;;;;;;7428370;19;20168;-87
2022/06/13 17:14:16;;;;;;;2.15;1.50;;;;;;;;;;7428096;19;20178;-86
2022/06/13 17:16:42;;;;;;;2.33;1.50;;;;;;;;;;7427166;19;20139;-86
2022/06/13 17:19:09;;;;;;;2.45;1.60;;;;;;;;;;7428348;19;20141;-86
2022/06/13 17:21:35;;;;;;;3.88;1.70;;;;;;;;;;7428084;19;20177;-86
2022/06/13 17:24:02;;;;;;;2.20;1.50;;;;;;;;;;7428783;19;20137;-86
2022/06/13 17:32:07;;;;;;;4.65;3.20;;;;;;;;;;7429070;19;20142;-86
2022/06/13 17:34:33;;;;;;;4.78;3.30;;;;;;;;;;7413280;19;20165;-88
2022/06/13 17:36:59;;;;;;;4.63;2.80;;;;;;;;;;7395986;19;20150;-88
2022/06/13 17:39:26;;;;;;;3.28;2.00;;;;;;;;;;7394944;19;20187;-87
2022/06/13 17:41:52;;;;;;;2.05;1.52;;;;;;;;;;7396372;19;20136;-88
2022/06/13 17:44:18;;;;;;;3.50;1.60;;;;;;;;;;7395496;19;20616;-88
2022/06/13 17:46:44;;;;;;;3.10;2.15;;;;;;;;;;7396817;19;20165;-88
2022/06/13 17:49:10;;;;;;;2.22;1.63;;;;;;;;;;7392500;19;20145;-88
2022/06/13 17:51:36;;;;;;;3.83;1.90;;;;;;;;;;7393208;19;20164;-88
2022/06/13 17:54:02;;;;;;;2.70;1.83;;;;;;;;;;7393136;19;20136;-88
2022/06/13 17:56:33;;;;;;;2.45;1.60;;;;;;;;;;7415501;19;20137;-88
2022/06/13 17:58:59;;;;;;;2.20;1.38;;;;;;;;;;7423700;19;20168;-88
2022/06/13 18:01:25;;;;;;;4.32;1.98;;;;;;;;;;7425140;19;20165;-88
2022/06/13 18:03:51;;;;;;;3.20;2.00;;;;;;;;;;7428563;19;20140;-88
2022/06/13 18:06:17;;;;;;;2.42;2.00;;;;;;;;;;7422223;19;20172;-89
2022/06/13 18:08:48;;;;;;;3.67;2.00;;;;;;;;;;7424715;19;20158;-89
2022/06/13 18:11:14;;;;;;;2.08;1.42;;;;;;;;;;7426267;19;20187;-89
2022/06/13 18:13:40;;;;;;;3.25;1.63;;;;;;;;;;7424900;19;20140;-89
2022/06/13 18:16:07;;;;;;;3.95;1.90;;;;;;;;;;7425913;19;20118;-89
2022/06/13 18:18:37;;;;;;;3.67;1.83;;;;;;;;;;7410975;19;20212;-90
2022/06/13 18:21:03;;;;;;;2.30;1.65;;;;;;;;;;7399443;19;20171;-90
2022/06/13 18:23:33;;;;;;;2.38;2.00;;;;;;;;;;7404431;19;20601;-88
2022/06/13 18:25:59;;;;;;;2.60;2.10;;;;;;;;;;7409298;19;20220;-92
2022/06/13 18:28:26;;;;;;;3.47;3.17;;;;;;;;;;7403323;19;20166;-92
2022/06/13 18:30:52;;;;;;;3.78;1.90;;;;;;;;;;7399096;19;20181;-92
2022/06/13 18:33:18;;;;;;;5.43;2.95;;;;;;;;;;7401386;19;20519;-91
2022/06/13 18:35:44;;;;;;;2.53;2.20;;;;;;;;;;7400160;19;20128;-90
2022/06/13 18:38:10;;;;;;;2.65;1.73;;;;;;;;;;7396895;19;20189;-90
2022/06/13 18:40:38;;;;;;;3.78;2.72;;;;;;;;;;7399033;19;20480;-91
2022/06/13 18:43:05;;;;;;;2.80;1.70;;;;;;;;;;7397556;19;20161;-90
2022/06/13 18:45:32;;;;;;;2.70;2.05;;;;;;;;;;7401733;19;20161;-90
2022/06/13 18:47:58;;;;;;;4.05;1.83;;;;;;;;;;7404498;19;20156;-89
2022/06/13 18:50:25;;;;;;;2.22;1.60;;;;;;;;;;7395864;19;20168;-87
2022/06/13 18:52:51;;;;;;;2.97;1.98;;;;;;;;;;7400073;19;20172;-88
2022/06/13 18:55:17;;;;;;;4.15;1.92;;;;;;;;;;7399684;19;20141;-88
2022/06/13 18:57:44;;;;;;;2.67;1.65;;;;;;;;;;7396091;19;20160;-88
2022/06/13 19:00:12;;;;;;;3.00;1.83;;;;;;;;;;7396042;19;20148;-87
2022/06/13 19:02:41;;;;;;;21.83;15.05;;;;;;;;;;7396951;19;20523;-89
2022/06/13 19:05:08;;;;;;;28.55;16.30;;;;;;;;;;7399035;19;20185;-90
2022/06/13 19:07:35;;;;;;;32.25;23.08;;;;;;;;;;7397922;19;20274;-91
2022/06/13 19:10:03;;;;;;;17.10;13.30;;;;;;;;;;7402106;19;20145;-94
2022/06/13 19:12:29;;;;;;;5.90;3.20;;;;;;;;;;7401674;19;20149;-92
2022/06/13 19:14:58;;;;;;;5.25;2.22;;;;;;;;;;7397796;19;20121;-92
2022/06/13 19:17:26;;;;;;;4.22;2.20;;;;;;;;;;7399961;19;20163;-91
2022/06/13 19:19:53;;;;;;;5.35;2.15;;;;;;;;;;7397074;19;20176;-92
2022/06/13 19:22:19;;;;;;;3.63;2.50;;;;;;;;;;7400883;19;20228;-90
2022/06/13 19:24:44;;;;;;;7.05;2.70;;;;;;;;;;7401199;19;20148;-92
2022/06/13 19:27:11;;;;;;;3.63;2.85;;;;;;;;;;7399694;19;20129;-90
2022/06/13 19:29:39;;;;;;;3.65;2.30;;;;;;;;;;7405939;19;20193;-94
2022/06/13 19:32:07;;;;;;;5.78;2.55;;;;;;;;;;7404263;19;20137;-92
2022/06/13 19:34:36;;;;;;;3.75;2.55;;;;;;;;;;7402616;19;20213;-93
2022/06/13 19:37:08;;;;;;;4.65;2.88;;;;;;;;;;7397913;19;20154;-92
2022/06/13 19:39:35;;;;;;;3.70;2.30;;;;;;;;;;7398985;19;20145;-92
2022/06/13 19:42:02;;;;;;;3.85;2.30;;;;;;;;;;7398516;19;20224;-93
2022/06/13 19:44:28;;;;;;;5.10;2.08;;;;;;;;;;7400970;19;20137;-92
2022/06/13 19:46:54;;;;;;;3.08;1.95;;;;;;;;;;7403187;19;20139;-93
2022/06/13 19:49:21;;;;;;;3.90;2.00;;;;;;;;;;7404508;19;20146;-87
2022/06/13 19:51:48;;;;;;;5.32;2.78;;;;;;;;;;7401700;19;20579;-88
2022/06/13 19:54:15;;;;;;;3.97;2.15;;;;;;;;;;7401067;19;20145;-89
2022/06/13 19:56:42;;;;;;;3.60;1.92;;;;;;;;;;7399526;19;20145;-89
2022/06/13 19:59:08;;;;;;;5.07;2.50;;;;;;;;;;7409283;19;20188;-90
2022/06/13 20:01:35;;;;;;;4.45;1.90;;;;;;;;;;7411321;19;20140;-89
2022/06/13 20:04:02;;;;;;;3.50;2.05;;;;;;;;;;7411038;19;20156;-88
2022/06/13 20:09:17;;;;;;;3.90;2.42;;;;;;;;;;7402112;19;20148;-87
2022/06/13 20:11:45;;;;;;;4.03;2.63;;;;;;;;;;7405272;19;20141;-87
2022/06/13 20:14:13;;;;;;;3.65;2.50;;;;;;;;;;7404881;19;20134;-85
2022/06/13 20:16:40;;;;;;;4.53;2.30;;;;;;;;;;7402580;19;20141;-88
2022/06/13 20:19:27;;;;;;;4.13;2.15;;;;;;;;;;7400169;19;20599;-88
2022/06/13 20:21:57;;;;;;;2.95;2.17;;;;;;;;;;7398502;19;20139;-90
2022/06/13 20:24:23;;;;;;;3.00;2.15;;;;;;;;;;7395886;19;20137;-90
2022/06/13 20:26:49;;;;;;;2.67;1.80;;;;;;;;;;7396090;19;20133;-88
2022/06/13 20:29:15;;;;;;;5.22;2.30;;;;;;;;;;7397175;19;20180;-92
2022/06/13 20:31:42;;;;;;;4.65;2.25;;;;;;;;;;7400110;19;20152;-91
2022/06/13 20:34:12;;;;;;;3.65;2.50;;;;;;;;;;7398602;19;20548;-91
2022/06/13 20:36:39;;;;;;;3.10;2.33;;;;;;;;;;7392944;19;20159;-92
2022/06/13 20:39:07;;;;;;;5.25;1.77;;;;;;;;;;7392734;19;20553;-88
2022/06/13 20:41:34;;;;;;;3.08;2.00;;;;;;;;;;7393820;19;20175;-90
2022/06/13 20:44:02;;;;;;;8.38;3.30;;;;;;;;;;7398521;19;20138;-91
2022/06/13 20:46:28;;;;;;;3.67;1.70;;;;;;;;;;7396646;19;20147;-91
2022/06/13 20:48:56;;;;;;;2.65;2.00;;;;;;;;;;7394083;19;20129;-92
2022/06/13 20:51:23;;;;;;;3.22;1.80;;;;;;;;;;7396546;19;20148;-91
2022/06/13 20:53:52;;;;;;;3.53;1.83;;;;;;;;;;7409981;19;20152;-93
2022/06/13 20:56:27;;;;;;;3.33;1.80;;;;;;;;;;7403464;19;20172;-89
2022/06/13 20:58:53;;;;;;;8.13;1.93;;;;;;;;;;7400692;19;20163;-89
2022/06/13 21:01:19;;;;;;;4.30;1.90;;;;;;;;;;7394460;19;20625;-89
2022/06/13 21:03:50;;;;;;;3.90;2.10;;;;;;;;;;7395437;19;20157;-89
2022/06/13 21:06:16;;;;;;;5.40;3.38;;;;;;;;;;7396197;19;20641;-90
2022/06/13 21:11:28;;;;;;;3.43;2.23;;;;;;;;;;7400163;19;20162;-91
2022/06/13 21:13:54;;;;;;;2.78;1.90;;;;;;;;;;7397565;19;20566;-90
2022/06/13 21:16:21;;;;;;;2.20;2.00;;;;;;;;;;7393787;19;20160;-90
2022/06/13 21:18:47;;;;;;;2.63;2.23;;;;;;;;;;7390116;19;20899;-89
2022/06/13 21:21:13;;;;;;;3.13;1.90;;;;;;;;;;7395521;19;20129;-90
2022/06/13 21:23:40;;;;;;;3.05;2.05;;;;;;;;;;7398405;19;20638;-90
2022/06/13 21:26:06;;;;;;;5.93;2.07;;;;;;;;;;7398792;19;20140;-88
2022/06/13 21:28:33;;;;;;;3.43;1.97;;;;;;;;;;7397651;19;20157;-89
2022/06/13 21:30:59;;;;;;;3.80;1.67;;;;;;;;;;7397313;19;20140;-88
2022/06/13 21:33:25;;;;;;;2.80;1.80;;;;;;;;;;7399385;19;20204;-89
2022/06/13 21:35:51;;;;;;;3.00;1.67;;;;;;;;;;7395180;19;20179;-90
2022/06/13 21:38:18;;;;;;;3.13;1.80;;;;;;;;;;7395236;19;20244;-88
2022/06/13 21:40:50;;;;;;;4.40;2.00;;;;;;;;;;7396786;19;20141;-89
2022/06/13 21:43:16;;;;;;;4.17;1.87;;;;;;;;;;7399483;19;20163;-89
2022/06/13 21:45:43;;;;;;;3.30;1.83;;;;;;;;;;7395064;19;20159;-89
2022/06/13 21:48:09;;;;;;;2.60;1.93;;;;;;;;;;7397953;19;20125;-88
2022/06/13 21:50:36;;;;;;;2.30;1.80;;;;;;;;;;7397611;19;20180;-89
2022/06/13 21:53:01;;;;;;;4.70;2.13;;;;;;;;;;7397372;19;20150;-89
2022/06/13 21:55:28;;;;;;;2.17;1.77;;;;;;;;;;7402923;19;20155;-90
2022/06/13 21:57:54;;;;;;;3.07;1.70;;;;;;;;;;7400433;19;20168;-91
2022/06/13 22:00:25;;;;;;;4.83;1.83;;;;;;;;;;7400463;19;20172;-89
2022/06/13 22:02:52;;;;;;;4.63;2.17;;;;;;;;;;7401728;19;20190;-90
2022/06/13 22:05:17;;;;;;;2.40;1.80;;;;;;;;;;7407897;19;20160;-85
2022/06/13 22:07:43;;;;;;;2.10;1.57;;;;;;;;;;7411180;19;20131;-86
2022/06/13 22:10:10;;;;;;;2.30;1.90;;;;;;;;;;7407603;19;20183;-86
2022/06/13 22:12:37;;;;;;;4.57;1.93;;;;;;;;;;7409073;19;20491;-85
2022/06/13 22:15:04;;;;;;;3.40;1.80;;;;;;;;;;7408783;19;20165;-87
2022/06/13 22:17:30;;;;;;;4.87;1.80;;;;;;;;;;7406578;19;20625;-85
2022/06/13 22:19:56;;;;;;;6.87;4.20;;;;;;;;;;7407409;19;20174;-87
2022/06/13 22:22:23;;;;;;;7.80;3.60;;;;;;;;;;7404678;19;20157;-86
2022/06/13 22:24:49;;;;;;;3.47;1.90;;;;;;;;;;7402582;19;20145;-88
2022/06/13 22:27:15;;;;;;;4.43;1.80;;;;;;;;;;7403193;19;20201;-85
2022/06/13 22:29:41;;;;;;;4.07;1.80;;;;;;;;;;7402666;19;20201;-89
2022/06/13 22:32:07;;;;;;;2.87;1.57;;;;;;;;;;7407821;19;20150;-87
2022/06/13 22:34:33;;;;;;;3.33;1.90;;;;;;;;;;7409891;19;20141;-91
2022/06/13 22:36:59;;;;;;;3.60;1.70;;;;;;;;;;7402033;19;20144;-88
2022/06/13 22:39:25;;;;;;;3.87;2.17;;;;;;;;;;7402204;19;20182;-88
2022/06/13 22:41:52;;;;;;;2.10;1.77;;;;;;;;;;7403330;19;20657;-87
2022/06/13 22:44:18;;;;;;;3.80;2.10;;;;;;;;;;7404449;19;20481;-87
2022/06/13 22:49:47;;;;;;;3.10;1.90;;;;;;;;;;7434261;19;20149;-93
2022/06/13 22:52:13;;;;;;;3.80;2.03;;;;;;;;;;7431736;19;20140;-94
2022/06/13 22:54:39;;;;;;;3.80;2.10;;;;;;;;;;7436005;19;20148;-93
2022/06/13 22:57:06;;;;;;;4.10;2.10;;;;;;;;;;7434064;19;20122;-95
2022/06/13 22:59:32;;;;;;;4.47;1.90;;;;;;;;;;7434155;19;20184;-94
2022/06/13 23:02:00;;;;;;;2.93;1.97;;;;;;;;;;7427245;19;20137;-92
2022/06/13 23:04:26;;;;;;;3.27;2.07;;;;;;;;;;7430740;19;20184;-90
2022/06/13 23:06:52;;;;;;;6.27;2.10;;;;;;;;;;7426546;19;20129;-91
2022/06/13 23:09:18;;;;;;;5.00;2.10;;;;;;;;;;7429277;19;20165;-89
2022/06/13 23:11:48;;;;;;;2.47;2.03;;;;;;;;;;7409529;19;20137;-88
2022/06/13 23:14:14;;;;;;;3.17;1.80;;;;;;;;;;7406473;19;20147;-88
2022/06/13 23:16:40;;;;;;;4.53;1.80;;;;;;;;;;7401340;19;20145;-88
2022/06/13 23:19:06;;;;;;;5.83;2.27;;;;;;;;;;7401839;19;20160;-89
2022/06/13 23:21:32;;;;;;;5.20;2.17;;;;;;;;;;7399993;19;20144;-90
2022/06/13 23:23:58;;;;;;;4.60;1.80;;;;;;;;;;7398444;19;20141;-89
2022/06/13 23:26:24;;;;;;;4.70;2.07;;;;;;;;;;7404185;19;20149;-88
2022/06/13 23:28:50;;;;;;;3.73;2.00;;;;;;;;;;7399705;19;20208;-92
2022/06/13 23:31:16;;;;;;;2.87;2.03;;;;;;;;;;7398192;19;20529;-92
2022/06/13 23:33:42;;;;;;;4.80;1.70;;;;;;;;;;7397831;19;20152;-90
2022/06/13 23:36:09;;;;;;;2.43;1.70;;;;;;;;;;7397876;19;20204;-92
2022/06/13 23:38:35;;;;;;;2.60;1.67;;;;;;;;;;7399162;19;20152;-91
2022/06/13 23:41:04;;;;;;;4.03;1.90;;;;;;;;;;7396930;19;20176;-91
2022/06/13 23:43:29;;;;;;;4.47;2.20;;;;;;;;;;7398619;19;20143;-92
2022/06/13 23:45:55;;;;;;;4.23;1.73;;;;;;;;;;7394432;19;20224;-90
2022/06/13 23:48:21;;;;;;;2.83;1.97;;;;;;;;;;7396373;19;20152;-92
2022/06/13 23:50:47;;;;;;;2.40;1.77;;;;;;;;;;7395662;19;20195;-92
2022/06/13 23:53:15;;;;;;;4.47;2.13;;;;;;;;;;7396445;19;20129;-91
2022/06/13 23:55:41;;;;;;;4.93;2.30;;;;;;;;;;7399167;19;20625;-92
2022/06/13 23:58:09;;;;;;;3.77;1.87;;;;;;;;;;7401029;19;20145;-93
